sensor_id;sensor_type;location;lat;lon;timestamp;temperature;humidity
65707;SHT31;52423;43.512;5.220;2023-11-22T00:00:43;10.90;65.22
65707;SHT31;52423;43.512;5.220;2023-11-22T00:03:09;10.84;65.22
65707;SHT31;52423;43.512;5.220;2023-11-22T00:05:34;10.84;65.17
65707;SHT31;52423;43.512;5.220;2023-11-22T00:08:00;10.88;64.80
65707;SHT31;52423;43.512;5.220;2023-11-22T00:10:25;10.85;65.51
65707;SHT31;52423;43.512;5.220;2023-11-22T00:12:50;10.74;65.95
65707;SHT31;52423;43.512;5.220;2023-11-22T00:15:16;10.82;65.04
65707;SHT31;52423;43.512;5.220;2023-11-22T00:17:46;10.82;64.97
65707;SHT31;52423;43.512;5.220;2023-11-22T00:20:12;10.78;65.12
65707;SHT31;52423;43.512;5.220;2023-11-22T00:22:38;10.74;65.49
65707;SHT31;52423;43.512;5.220;2023-11-22T00:25:04;10.68;65.59
65707;SHT31;52423;43.512;5.220;2023-11-22T00:27:30;10.63;65.66
65707;SHT31;52423;43.512;5.220;2023-11-22T00:29:57;10.61;65.78
65707;SHT31;52423;43.512;5.220;2023-11-22T00:32:23;10.59;65.80
65707;SHT31;52423;43.512;5.220;2023-11-22T00:34:48;10.60;65.88
65707;SHT31;52423;43.512;5.220;2023-11-22T00:37:14;10.60;66.09
65707;SHT31;52423;43.512;5.220;2023-11-22T00:39:40;10.61;65.90
65707;SHT31;52423;43.512;5.220;2023-11-22T00:42:06;10.60;66.26
65707;SHT31;52423;43.512;5.220;2023-11-22T00:44:32;10.65;66.32
65707;SHT31;52423;43.512;5.220;2023-11-22T00:46:57;10.65;66.30
65707;SHT31;52423;43.512;5.220;2023-11-22T00:49:23;10.64;66.34
65707;SHT31;52423;43.512;5.220;2023-11-22T00:51:49;10.65;66.50
65707;SHT31;52423;43.512;5.220;2023-11-22T00:54:15;10.64;66.84
65707;SHT31;52423;43.512;5.220;2023-11-22T00:56:41;10.60;67.06
65707;SHT31;52423;43.512;5.220;2023-11-22T00:59:06;10.64;66.27
65707;SHT31;52423;43.512;5.220;2023-11-22T01:01:32;10.65;66.21
65707;SHT31;52423;43.512;5.220;2023-11-22T01:03:57;10.61;66.60
65707;SHT31;52423;43.512;5.220;2023-11-22T01:06:23;10.65;66.05
65707;SHT31;52423;43.512;5.220;2023-11-22T01:08:49;10.61;66.78
65707;SHT31;52423;43.512;5.220;2023-11-22T01:11:15;10.61;66.36
65707;SHT31;52423;43.512;5.220;2023-11-22T01:13:40;10.61;66.60
65707;SHT31;52423;43.512;5.220;2023-11-22T01:16:08;10.56;66.95
65707;SHT31;52423;43.512;5.220;2023-11-22T01:18:33;10.53;67.40
65707;SHT31;52423;43.512;5.220;2023-11-22T01:20:59;10.56;67.22
65707;SHT31;52423;43.512;5.220;2023-11-22T01:23:25;10.56;67.21
65707;SHT31;52423;43.512;5.220;2023-11-22T01:25:50;10.54;67.86
65707;SHT31;52423;43.512;5.220;2023-11-22T01:28:16;10.53;67.57
65707;SHT31;52423;43.512;5.220;2023-11-22T01:30:44;10.54;67.59
65707;SHT31;52423;43.512;5.220;2023-11-22T01:33:12;10.53;67.63
65707;SHT31;52423;43.512;5.220;2023-11-22T01:35:38;10.54;67.79
65707;SHT31;52423;43.512;5.220;2023-11-22T01:38:04;10.54;67.82
65707;SHT31;52423;43.512;5.220;2023-11-22T01:40:31;10.53;67.73
65707;SHT31;52423;43.512;5.220;2023-11-22T01:42:58;10.50;67.83
65707;SHT31;52423;43.512;5.220;2023-11-22T01:45:23;10.56;67.92
65707;SHT31;52423;43.512;5.220;2023-11-22T01:47:48;10.53;68.01
65707;SHT31;52423;43.512;5.220;2023-11-22T01:50:14;10.56;68.09
65707;SHT31;52423;43.512;5.220;2023-11-22T01:52:40;10.53;68.64
65707;SHT31;52423;43.512;5.220;2023-11-22T01:55:06;10.50;68.54
65707;SHT31;52423;43.512;5.220;2023-11-22T01:57:33;10.46;68.30
65707;SHT31;52423;43.512;5.220;2023-11-22T02:00:03;10.44;68.57
65707;SHT31;52423;43.512;5.220;2023-11-22T02:02:33;10.40;68.61
65707;SHT31;52423;43.512;5.220;2023-11-22T02:04:58;10.40;68.68
65707;SHT31;52423;43.512;5.220;2023-11-22T02:07:27;10.40;67.98
65707;SHT31;52423;43.512;5.220;2023-11-22T02:09:52;10.43;67.91
65707;SHT31;52423;43.512;5.220;2023-11-22T02:12:18;10.40;68.04
65707;SHT31;52423;43.512;5.220;2023-11-22T02:14:44;10.43;68.04
65707;SHT31;52423;43.512;5.220;2023-11-22T02:17:10;10.43;68.18
65707;SHT31;52423;43.512;5.220;2023-11-22T02:19:35;10.40;68.35
65707;SHT31;52423;43.512;5.220;2023-11-22T02:22:02;10.37;68.38
65707;SHT31;52423;43.512;5.220;2023-11-22T02:24:27;10.42;68.15
65707;SHT31;52423;43.512;5.220;2023-11-22T02:26:53;10.37;68.38
65707;SHT31;52423;43.512;5.220;2023-11-22T02:29:18;10.36;68.69
65707;SHT31;52423;43.512;5.220;2023-11-22T02:31:44;10.34;68.75
65707;SHT31;52423;43.512;5.220;2023-11-22T02:34:10;10.36;68.71
65707;SHT31;52423;43.512;5.220;2023-11-22T02:36:35;10.40;68.44
65707;SHT31;52423;43.512;5.220;2023-11-22T02:39:00;10.40;68.13
65707;SHT31;52423;43.512;5.220;2023-11-22T02:41:29;10.44;68.16
65707;SHT31;52423;43.512;5.220;2023-11-22T02:43:57;10.33;68.76
65707;SHT31;52423;43.512;5.220;2023-11-22T02:46:23;10.29;68.91
65707;SHT31;52423;43.512;5.220;2023-11-22T02:48:49;10.28;69.33
65707;SHT31;52423;43.512;5.220;2023-11-22T02:51:14;10.24;69.21
65707;SHT31;52423;43.512;5.220;2023-11-22T02:53:40;10.23;69.12
65707;SHT31;52423;43.512;5.220;2023-11-22T02:56:11;10.19;68.87
65707;SHT31;52423;43.512;5.220;2023-11-22T02:58:36;10.16;69.16
65707;SHT31;52423;43.512;5.220;2023-11-22T03:01:02;10.09;69.15
65707;SHT31;52423;43.512;5.220;2023-11-22T03:03:27;10.14;68.73
65707;SHT31;52423;43.512;5.220;2023-11-22T03:05:53;10.23;68.13
65707;SHT31;52423;43.512;5.220;2023-11-22T03:08:19;10.28;67.92
65707;SHT31;52423;43.512;5.220;2023-11-22T03:10:44;10.26;68.18
65707;SHT31;52423;43.512;5.220;2023-11-22T03:13:10;10.29;68.29
65707;SHT31;52423;43.512;5.220;2023-11-22T03:15:35;10.28;68.56
65707;SHT31;52423;43.512;5.220;2023-11-22T03:18:01;10.33;67.96
65707;SHT31;52423;43.512;5.220;2023-11-22T03:20:27;10.34;68.11
65707;SHT31;52423;43.512;5.220;2023-11-22T03:22:52;10.34;68.16
65707;SHT31;52423;43.512;5.220;2023-11-22T03:25:18;10.32;68.20
65707;SHT31;52423;43.512;5.220;2023-11-22T03:27:43;10.33;68.34
65707;SHT31;52423;43.512;5.220;2023-11-22T03:30:09;10.33;68.20
65707;SHT31;52423;43.512;5.220;2023-11-22T03:32:38;10.32;68.27
65707;SHT31;52423;43.512;5.220;2023-11-22T03:35:07;10.28;68.46
65707;SHT31;52423;43.512;5.220;2023-11-22T03:37:33;10.30;68.54
65707;SHT31;52423;43.512;5.220;2023-11-22T03:39:59;10.33;68.81
65707;SHT31;52423;43.512;5.220;2023-11-22T03:42:24;10.24;68.69
65707;SHT31;52423;43.512;5.220;2023-11-22T03:44:50;10.29;68.72
65707;SHT31;52423;43.512;5.220;2023-11-22T03:47:17;10.28;68.40
65707;SHT31;52423;43.512;5.220;2023-11-22T03:49:42;10.28;68.40
65707;SHT31;52423;43.512;5.220;2023-11-22T03:52:10;10.29;68.47
65707;SHT31;52423;43.512;5.220;2023-11-22T03:54:36;10.33;68.45
65707;SHT31;52423;43.512;5.220;2023-11-22T03:57:01;10.32;68.57
65707;SHT31;52423;43.512;5.220;2023-11-22T03:59:27;10.28;68.40
65707;SHT31;52423;43.512;5.220;2023-11-22T04:01:52;10.28;68.50
65707;SHT31;52423;43.512;5.220;2023-11-22T04:04:18;10.24;68.77
65707;SHT31;52423;43.512;5.220;2023-11-22T04:06:44;10.19;68.75
65707;SHT31;52423;43.512;5.220;2023-11-22T04:09:09;10.17;68.86
65707;SHT31;52423;43.512;5.220;2023-11-22T04:11:37;10.14;68.98
65707;SHT31;52423;43.512;5.220;2023-11-22T04:14:03;10.13;69.13
65707;SHT31;52423;43.512;5.220;2023-11-22T04:16:28;10.12;69.07
65707;SHT31;52423;43.512;5.220;2023-11-22T04:18:54;10.10;69.09
65707;SHT31;52423;43.512;5.220;2023-11-22T04:21:19;10.09;69.27
65707;SHT31;52423;43.512;5.220;2023-11-22T04:23:45;10.10;69.11
65707;SHT31;52423;43.512;5.220;2023-11-22T04:26:10;10.06;69.52
65707;SHT31;52423;43.512;5.220;2023-11-22T04:28:36;10.09;69.44
65707;SHT31;52423;43.512;5.220;2023-11-22T04:31:01;10.08;69.16
65707;SHT31;52423;43.512;5.220;2023-11-22T04:33:26;10.05;68.91
65707;SHT31;52423;43.512;5.220;2023-11-22T04:35:55;10.01;69.18
65707;SHT31;52423;43.512;5.220;2023-11-22T04:38:21;9.99;68.96
65707;SHT31;52423;43.512;5.220;2023-11-22T04:40:46;10.01;69.10
65707;SHT31;52423;43.512;5.220;2023-11-22T04:43:13;10.01;69.17
65707;SHT31;52423;43.512;5.220;2023-11-22T04:45:38;10.05;68.95
65707;SHT31;52423;43.512;5.220;2023-11-22T04:48:04;10.01;68.97
65707;SHT31;52423;43.512;5.220;2023-11-22T04:50:31;10.03;69.09
65707;SHT31;52423;43.512;5.220;2023-11-22T04:52:57;10.02;69.13
65707;SHT31;52423;43.512;5.220;2023-11-22T04:55:22;10.03;68.57
65707;SHT31;52423;43.512;5.220;2023-11-22T04:57:50;10.05;68.35
65707;SHT31;52423;43.512;5.220;2023-11-22T05:00:17;10.05;68.35
65707;SHT31;52423;43.512;5.220;2023-11-22T05:02:42;10.08;68.26
65707;SHT31;52423;43.512;5.220;2023-11-22T05:05:08;10.06;68.27
65707;SHT31;52423;43.512;5.220;2023-11-22T05:07:36;10.03;68.33
65707;SHT31;52423;43.512;5.220;2023-11-22T05:10:03;9.99;68.48
65707;SHT31;52423;43.512;5.220;2023-11-22T05:12:29;9.96;68.75
65707;SHT31;52423;43.512;5.220;2023-11-22T05:14:54;9.95;68.89
65707;SHT31;52423;43.512;5.220;2023-11-22T05:17:20;9.98;68.81
65707;SHT31;52423;43.512;5.220;2023-11-22T05:19:45;9.95;69.43
65707;SHT31;52423;43.512;5.220;2023-11-22T05:22:10;9.96;69.18
65707;SHT31;52423;43.512;5.220;2023-11-22T05:24:36;9.98;69.43
65707;SHT31;52423;43.512;5.220;2023-11-22T05:27:04;9.93;69.97
65707;SHT31;52423;43.512;5.220;2023-11-22T05:29:29;9.96;69.75
65707;SHT31;52423;43.512;5.220;2023-11-22T05:31:55;9.95;70.06
65707;SHT31;52423;43.512;5.220;2023-11-22T05:34:21;9.93;69.97
65707;SHT31;52423;43.512;5.220;2023-11-22T05:36:46;9.93;70.12
65707;SHT31;52423;43.512;5.220;2023-11-22T05:39:11;9.93;70.21
65707;SHT31;52423;43.512;5.220;2023-11-22T05:41:37;9.92;70.19
65707;SHT31;52423;43.512;5.220;2023-11-22T05:44:03;9.92;69.83
65707;SHT31;52423;43.512;5.220;2023-11-22T05:46:29;9.95;70.01
65707;SHT31;52423;43.512;5.220;2023-11-22T05:48:54;9.92;70.12
65707;SHT31;52423;43.512;5.220;2023-11-22T05:51:20;9.92;69.80
65707;SHT31;52423;43.512;5.220;2023-11-22T05:53:46;9.98;69.93
65707;SHT31;52423;43.512;5.220;2023-11-22T05:56:12;9.95;69.80
65707;SHT31;52423;43.512;5.220;2023-11-22T05:58:38;9.95;69.72
65707;SHT31;52423;43.512;5.220;2023-11-22T06:01:10;9.92;69.77
65707;SHT31;52423;43.512;5.220;2023-11-22T06:03:37;9.96;69.68
65707;SHT31;52423;43.512;5.220;2023-11-22T06:06:04;9.98;69.40
65707;SHT31;52423;43.512;5.220;2023-11-22T06:08:30;10.01;69.42
65707;SHT31;52423;43.512;5.220;2023-11-22T06:10:56;10.01;69.57
65707;SHT31;52423;43.512;5.220;2023-11-22T06:13:23;10.01;69.50
65707;SHT31;52423;43.512;5.220;2023-11-22T06:15:48;10.02;69.73
65707;SHT31;52423;43.512;5.220;2023-11-22T06:18:14;10.05;69.57
65707;SHT31;52423;43.512;5.220;2023-11-22T06:20:41;10.05;69.69
65707;SHT31;52423;43.512;5.220;2023-11-22T06:23:06;10.02;69.89
65707;SHT31;52423;43.512;5.220;2023-11-22T06:25:32;10.03;69.99
65707;SHT31;52423;43.512;5.220;2023-11-22T06:27:57;10.02;69.87
65707;SHT31;52423;43.512;5.220;2023-11-22T06:30:22;10.01;69.96
65707;SHT31;52423;43.512;5.220;2023-11-22T06:32:52;9.98;70.06
65707;SHT31;52423;43.512;5.220;2023-11-22T06:35:19;10.01;70.02
65707;SHT31;52423;43.512;5.220;2023-11-22T06:37:44;9.98;70.40
65707;SHT31;52423;43.512;5.220;2023-11-22T06:40:11;9.96;70.23
65707;SHT31;52423;43.512;5.220;2023-11-22T06:42:42;10.01;70.26
65707;SHT31;52423;43.512;5.220;2023-11-22T06:45:08;9.99;70.18
65707;SHT31;52423;43.512;5.220;2023-11-22T06:47:38;10.01;70.25
65707;SHT31;52423;43.512;5.220;2023-11-22T06:50:04;10.01;70.31
65707;SHT31;52423;43.512;5.220;2023-11-22T06:52:37;10.03;69.91
65707;SHT31;52423;43.512;5.220;2023-11-22T06:55:04;10.05;70.01
65707;SHT31;52423;43.512;5.220;2023-11-22T06:57:29;10.05;69.90
65707;SHT31;52423;43.512;5.220;2023-11-22T06:59:56;10.03;69.97
65707;SHT31;52423;43.512;5.220;2023-11-22T07:02:21;10.08;70.06
65707;SHT31;52423;43.512;5.220;2023-11-22T07:04:47;10.12;69.89
65707;SHT31;52423;43.512;5.220;2023-11-22T07:07:12;10.13;69.83
65707;SHT31;52423;43.512;5.220;2023-11-22T07:09:42;10.24;69.21
65707;SHT31;52423;43.512;5.220;2023-11-22T07:12:07;10.32;68.72
65707;SHT31;52423;43.512;5.220;2023-11-22T07:14:33;10.49;68.21
65707;SHT31;52423;43.512;5.220;2023-11-22T07:16:58;10.63;67.83
65707;SHT31;52423;43.512;5.220;2023-11-22T07:19:25;10.77;67.16
65707;SHT31;52423;43.512;5.220;2023-11-22T07:21:50;10.85;66.60
65707;SHT31;52423;43.512;5.220;2023-11-22T07:24:15;10.98;66.59
65707;SHT31;52423;43.512;5.220;2023-11-22T07:26:41;11.10;66.24
65707;SHT31;52423;43.512;5.220;2023-11-22T07:29:07;11.21;65.43
65707;SHT31;52423;43.512;5.220;2023-11-22T07:31:33;11.28;65.33
65707;SHT31;52423;43.512;5.220;2023-11-22T07:33:59;11.38;65.49
65707;SHT31;52423;43.512;5.220;2023-11-22T07:36:27;11.47;64.83
65707;SHT31;52423;43.512;5.220;2023-11-22T07:38:54;11.60;64.84
65707;SHT31;52423;43.512;5.220;2023-11-22T07:41:19;11.67;63.75
65707;SHT31;52423;43.512;5.220;2023-11-22T07:43:46;11.72;63.74
65707;SHT31;52423;43.512;5.220;2023-11-22T07:46:12;11.77;63.85
65707;SHT31;52423;43.512;5.220;2023-11-22T07:48:42;11.84;63.95
65707;SHT31;52423;43.512;5.220;2023-11-22T07:51:07;11.93;63.21
65707;SHT31;52423;43.512;5.220;2023-11-22T07:53:33;12.05;62.83
65707;SHT31;52423;43.512;5.220;2023-11-22T07:56:02;12.14;62.62
65707;SHT31;52423;43.512;5.220;2023-11-22T07:58:30;12.21;62.52
65707;SHT31;52423;43.512;5.220;2023-11-22T08:00:58;12.24;62.04
65707;SHT31;52423;43.512;5.220;2023-11-22T08:03:25;12.37;62.60
65707;SHT31;52423;43.512;5.220;2023-11-22T08:05:51;12.34;61.24
65707;SHT31;52423;43.512;5.220;2023-11-22T08:08:20;12.37;62.13
65707;SHT31;52423;43.512;5.220;2023-11-22T08:10:46;12.37;61.81
65707;SHT31;52423;43.512;5.220;2023-11-22T08:13:13;12.41;62.21
65707;SHT31;52423;43.512;5.220;2023-11-22T08:15:38;12.41;61.32
65707;SHT31;52423;43.512;5.220;2023-11-22T08:18:04;12.41;61.51
65707;SHT31;52423;43.512;5.220;2023-11-22T08:20:31;12.37;61.35
65707;SHT31;52423;43.512;5.220;2023-11-22T08:22:56;12.31;61.66
65707;SHT31;52423;43.512;5.220;2023-11-22T08:25:22;12.34;61.75
65707;SHT31;52423;43.512;5.220;2023-11-22T08:27:48;12.35;61.75
65707;SHT31;52423;43.512;5.220;2023-11-22T08:30:14;12.27;62.03
65707;SHT31;52423;43.512;5.220;2023-11-22T08:32:42;12.14;62.20
65707;SHT31;52423;43.512;5.220;2023-11-22T08:35:08;12.13;63.18
65707;SHT31;52423;43.512;5.220;2023-11-22T08:37:34;12.10;62.57
65707;SHT31;52423;43.512;5.220;2023-11-22T08:40:04;12.05;63.04
65707;SHT31;52423;43.512;5.220;2023-11-22T08:42:30;12.03;63.01
65707;SHT31;52423;43.512;5.220;2023-11-22T08:44:55;12.04;63.02
65707;SHT31;52423;43.512;5.220;2023-11-22T08:47:21;12.07;62.36
65707;SHT31;52423;43.512;5.220;2023-11-22T08:49:46;12.05;62.37
65707;SHT31;52423;43.512;5.220;2023-11-22T08:52:13;12.07;62.76
65707;SHT31;52423;43.512;5.220;2023-11-22T08:54:38;12.16;61.90
65707;SHT31;52423;43.512;5.220;2023-11-22T08:57:04;12.18;61.63
65707;SHT31;52423;43.512;5.220;2023-11-22T08:59:31;12.23;61.24
65707;SHT31;52423;43.512;5.220;2023-11-22T09:01:58;12.30;61.40
65707;SHT31;52423;43.512;5.220;2023-11-22T09:04:23;12.32;61.68
65707;SHT31;52423;43.512;5.220;2023-11-22T09:06:51;12.46;60.89
65707;SHT31;52423;43.512;5.220;2023-11-22T09:09:16;12.56;61.69
65707;SHT31;52423;43.512;5.220;2023-11-22T09:11:42;12.71;61.51
65707;SHT31;52423;43.512;5.220;2023-11-22T09:14:07;12.82;61.38
65707;SHT31;52423;43.512;5.220;2023-11-22T09:16:38;13.03;59.29
65707;SHT31;52423;43.512;5.220;2023-11-22T09:19:04;13.27;58.03
65707;SHT31;52423;43.512;5.220;2023-11-22T09:21:32;13.47;58.03
65707;SHT31;52423;43.512;5.220;2023-11-22T09:23:58;13.64;58.22
65707;SHT31;52423;43.512;5.220;2023-11-22T09:26:24;13.71;57.01
65707;SHT31;52423;43.512;5.220;2023-11-22T09:28:49;13.70;56.34
65707;SHT31;52423;43.512;5.220;2023-11-22T09:31:14;13.77;55.97
65707;SHT31;52423;43.512;5.220;2023-11-22T09:33:43;13.81;57.30
65707;SHT31;52423;43.512;5.220;2023-11-22T09:36:09;13.89;56.08
65707;SHT31;52423;43.512;5.220;2023-11-22T09:38:34;14.01;55.90
65707;SHT31;52423;43.512;5.220;2023-11-22T09:41:00;14.06;55.27
65707;SHT31;52423;43.512;5.220;2023-11-22T09:43:27;14.06;54.66
65707;SHT31;52423;43.512;5.220;2023-11-22T09:45:54;13.95;55.20
65707;SHT31;52423;43.512;5.220;2023-11-22T09:48:21;13.85;55.22
65707;SHT31;52423;43.512;5.220;2023-11-22T09:53:40;13.74;55.90
65707;SHT31;52423;43.512;5.220;2023-11-22T09:56:07;13.78;55.52
65707;SHT31;52423;43.512;5.220;2023-11-22T09:58:35;13.82;56.30
65707;SHT31;52423;43.512;5.220;2023-11-22T10:01:02;13.85;56.13
65707;SHT31;52423;43.512;5.220;2023-11-22T10:03:29;13.89;55.25
65707;SHT31;52423;43.512;5.220;2023-11-22T10:05:58;13.86;56.15
65707;SHT31;52423;43.512;5.220;2023-11-22T10:08:29;13.92;55.96
65707;SHT31;52423;43.512;5.220;2023-11-22T10:10:55;13.95;55.25
65707;SHT31;52423;43.512;5.220;2023-11-22T10:13:23;13.97;56.02
65707;SHT31;52423;43.512;5.220;2023-11-22T10:15:50;14.04;55.22
65707;SHT31;52423;43.512;5.220;2023-11-22T10:18:16;14.04;55.16
65707;SHT31;52423;43.512;5.220;2023-11-22T10:20:43;14.01;56.46
65707;SHT31;52423;43.512;5.220;2023-11-22T10:23:12;13.95;56.21
65707;SHT31;52423;43.512;5.220;2023-11-22T10:25:49;14.08;55.27
65707;SHT31;52423;43.512;5.220;2023-11-22T10:28:17;14.18;55.01
65707;SHT31;52423;43.512;5.220;2023-11-22T10:30:45;14.23;55.71
65707;SHT31;52423;43.512;5.220;2023-11-22T10:33:11;14.26;56.62
65707;SHT31;52423;43.512;5.220;2023-11-22T10:35:43;14.40;54.76
65707;SHT31;52423;43.512;5.220;2023-11-22T10:38:09;14.59;54.33
65707;SHT31;52423;43.512;5.220;2023-11-22T10:40:36;14.59;55.71
65707;SHT31;52423;43.512;5.220;2023-11-22T10:43:01;14.63;54.76
65707;SHT31;52423;43.512;5.220;2023-11-22T10:45:29;14.81;53.03
65707;SHT31;52423;43.512;5.220;2023-11-22T10:47:56;14.97;52.19
65707;SHT31;52423;43.512;5.220;2023-11-22T10:50:22;14.97;52.41
65707;SHT31;52423;43.512;5.220;2023-11-22T10:52:51;15.04;51.26
65707;SHT31;52423;43.512;5.220;2023-11-22T10:55:26;15.07;51.88
65707;SHT31;52423;43.512;5.220;2023-11-22T10:57:52;14.98;54.33
65707;SHT31;52423;43.512;5.220;2023-11-22T11:00:21;15.15;52.35
65707;SHT31;52423;43.512;5.220;2023-11-22T11:02:51;15.20;51.79
65707;SHT31;52423;43.512;5.220;2023-11-22T11:05:21;15.15;53.44
65707;SHT31;52423;43.512;5.220;2023-11-22T11:07:54;15.14;53.28
65707;SHT31;52423;43.512;5.220;2023-11-22T11:10:21;15.14;54.31
65707;SHT31;52423;43.512;5.220;2023-11-22T11:12:47;15.30;52.88
65707;SHT31;52423;43.512;5.220;2023-11-22T11:15:14;15.32;54.28
65707;SHT31;52423;43.512;5.220;2023-11-22T11:17:40;15.41;53.63
65707;SHT31;52423;43.512;5.220;2023-11-22T11:20:06;15.49;52.10
65707;SHT31;52423;43.512;5.220;2023-11-22T11:22:32;15.52;51.16
65707;SHT31;52423;43.512;5.220;2023-11-22T11:25:05;15.44;53.47
65707;SHT31;52423;43.512;5.220;2023-11-22T11:27:34;15.46;52.02
65707;SHT31;52423;43.512;5.220;2023-11-22T11:32:58;15.44;52.71
65707;SHT31;52423;43.512;5.220;2023-11-22T11:35:40;15.36;52.26
65707;SHT31;52423;43.512;5.220;2023-11-22T11:38:06;15.38;51.63
65707;SHT31;52423;43.512;5.220;2023-11-22T11:40:34;15.32;52.50
65707;SHT31;52423;43.512;5.220;2023-11-22T11:43:00;15.32;52.79
65707;SHT31;52423;43.512;5.220;2023-11-22T11:45:27;15.31;52.60
65707;SHT31;52423;43.512;5.220;2023-11-22T11:47:52;15.38;52.74
65707;SHT31;52423;43.512;5.220;2023-11-22T11:50:20;15.38;53.33
65707;SHT31;52423;43.512;5.220;2023-11-22T11:52:47;15.46;52.02
65707;SHT31;52423;43.512;5.220;2023-11-22T11:55:12;15.59;50.25
65707;SHT31;52423;43.512;5.220;2023-11-22T11:57:37;15.58;50.45
65707;SHT31;52423;43.512;5.220;2023-11-22T12:00:03;15.61;51.15
65707;SHT31;52423;43.512;5.220;2023-11-22T12:02:30;15.65;50.87
65707;SHT31;52423;43.512;5.220;2023-11-22T12:04:56;15.65;51.28
65707;SHT31;52423;43.512;5.220;2023-11-22T12:07:21;15.69;51.00
65707;SHT31;52423;43.512;5.220;2023-11-22T12:09:46;15.73;49.53
65707;SHT31;52423;43.512;5.220;2023-11-22T12:12:13;15.81;49.89
65707;SHT31;52423;43.512;5.220;2023-11-22T12:14:39;15.83;50.76
65707;SHT31;52423;43.512;5.220;2023-11-22T12:17:04;15.82;49.73
65707;SHT31;52423;43.512;5.220;2023-11-22T12:19:33;15.83;49.28
65707;SHT31;52423;43.512;5.220;2023-11-22T12:21:59;15.86;50.18
65707;SHT31;52423;43.512;5.220;2023-11-22T12:24:25;15.86;50.97
65707;SHT31;52423;43.512;5.220;2023-11-22T12:26:50;15.92;50.04
65707;SHT31;52423;43.512;5.220;2023-11-22T12:29:19;15.92;49.08
65707;SHT31;52423;43.512;5.220;2023-11-22T12:31:45;15.87;49.66
65707;SHT31;52423;43.512;5.220;2023-11-22T12:34:13;15.89;49.85
65707;SHT31;52423;43.512;5.220;2023-11-22T12:36:40;15.89;49.48
65707;SHT31;52423;43.512;5.220;2023-11-22T12:39:09;15.94;49.27
65707;SHT31;52423;43.512;5.220;2023-11-22T12:41:52;15.92;48.85
65707;SHT31;52423;43.512;5.220;2023-11-22T12:44:18;15.93;48.86
65707;SHT31;52423;43.512;5.220;2023-11-22T12:46:53;15.89;49.22
65707;SHT31;52423;43.512;5.220;2023-11-22T12:49:26;15.81;49.82
65707;SHT31;52423;43.512;5.220;2023-11-22T12:51:55;15.83;50.65
65707;SHT31;52423;43.512;5.220;2023-11-22T12:54:21;15.90;50.00
65707;SHT31;52423;43.512;5.220;2023-11-22T12:56:53;15.92;50.72
65707;SHT31;52423;43.512;5.220;2023-11-22T12:59:24;15.89;51.25
65707;SHT31;52423;43.512;5.220;2023-11-22T13:01:53;15.92;50.69
65707;SHT31;52423;43.512;5.220;2023-11-22T13:04:19;15.93;51.41
65707;SHT31;52423;43.512;5.220;2023-11-22T13:06:45;15.93;49.60
65707;SHT31;52423;43.512;5.220;2023-11-22T13:09:10;15.86;51.09
65707;SHT31;52423;43.512;5.220;2023-11-22T13:11:41;15.83;51.30
65707;SHT31;52423;43.512;5.220;2023-11-22T13:14:07;15.81;52.05
65707;SHT31;52423;43.512;5.220;2023-11-22T13:16:33;15.82;50.57
65707;SHT31;52423;43.512;5.220;2023-11-22T13:19:00;15.86;49.74
65707;SHT31;52423;43.512;5.220;2023-11-22T13:21:25;15.87;50.16
65707;SHT31;52423;43.512;5.220;2023-11-22T13:23:52;15.89;49.71
65707;SHT31;52423;43.512;5.220;2023-11-22T13:26:17;15.86;50.44
65707;SHT31;52423;43.512;5.220;2023-11-22T13:28:42;15.86;51.03
65707;SHT31;52423;43.512;5.220;2023-11-22T13:31:08;15.82;50.71
65707;SHT31;52423;43.512;5.220;2023-11-22T13:33:35;15.89;50.52
65707;SHT31;52423;43.512;5.220;2023-11-22T13:36:00;15.93;50.34
65707;SHT31;52423;43.512;5.220;2023-11-22T13:38:25;15.87;50.88
65707;SHT31;52423;43.512;5.220;2023-11-22T13:40:51;15.85;49.82
65707;SHT31;52423;43.512;5.220;2023-11-22T13:43:17;15.69;50.94
65707;SHT31;52423;43.512;5.220;2023-11-22T13:45:45;15.58;51.48
65707;SHT31;52423;43.512;5.220;2023-11-22T13:48:10;15.52;51.19
65707;SHT31;52423;43.512;5.220;2023-11-22T13:50:37;15.49;51.35
65707;SHT31;52423;43.512;5.220;2023-11-22T13:53:02;15.48;51.18
65707;SHT31;52423;43.512;5.220;2023-11-22T13:55:29;15.48;51.82
65707;SHT31;52423;43.512;5.220;2023-11-22T13:57:59;15.46;51.65
65707;SHT31;52423;43.512;5.220;2023-11-22T14:00:28;15.41;52.92
65707;SHT31;52423;43.512;5.220;2023-11-22T14:02:57;15.44;51.83
65707;SHT31;52423;43.512;5.220;2023-11-22T14:05:29;15.42;52.22
65707;SHT31;52423;43.512;5.220;2023-11-22T14:07:55;15.38;52.17
65707;SHT31;52423;43.512;5.220;2023-11-22T14:10:21;15.35;52.56
65707;SHT31;52423;43.512;5.220;2023-11-22T14:12:48;15.35;52.36
65707;SHT31;52423;43.512;5.220;2023-11-22T14:15:13;15.31;52.70
65707;SHT31;52423;43.512;5.220;2023-11-22T14:17:39;15.34;51.95
65707;SHT31;52423;43.512;5.220;2023-11-22T14:20:07;15.24;52.58
65707;SHT31;52423;43.512;5.220;2023-11-22T14:22:35;15.24;52.78
65707;SHT31;52423;43.512;5.220;2023-11-22T14:25:01;15.22;52.53
65707;SHT31;52423;43.512;5.220;2023-11-22T14:27:26;15.25;52.47
65707;SHT31;52423;43.512;5.220;2023-11-22T14:29:54;15.20;52.77
65707;SHT31;52423;43.512;5.220;2023-11-22T14:32:19;15.15;53.38
65707;SHT31;52423;43.512;5.220;2023-11-22T14:34:46;15.14;52.64
65707;SHT31;52423;43.512;5.220;2023-11-22T14:37:12;15.11;52.93
65707;SHT31;52423;43.512;5.220;2023-11-22T14:39:41;15.11;52.41
65707;SHT31;52423;43.512;5.220;2023-11-22T14:42:07;15.04;53.17
65707;SHT31;52423;43.512;5.220;2023-11-22T14:44:36;15.03;52.71
65707;SHT31;52423;43.512;5.220;2023-11-22T14:47:04;14.93;53.89
65707;SHT31;52423;43.512;5.220;2023-11-22T14:49:32;14.88;54.18
65707;SHT31;52423;43.512;5.220;2023-11-22T14:51:58;14.85;53.84
65707;SHT31;52423;43.512;5.220;2023-11-22T14:54:23;14.79;53.76
65707;SHT31;52423;43.512;5.220;2023-11-22T14:56:49;14.76;53.36
65707;SHT31;52423;43.512;5.220;2023-11-22T14:59:15;14.76;53.70
65707;SHT31;52423;43.512;5.220;2023-11-22T15:01:42;14.72;53.55
65707;SHT31;52423;43.512;5.220;2023-11-22T15:04:09;14.70;53.88
65707;SHT31;52423;43.512;5.220;2023-11-22T15:06:35;14.63;54.65
65707;SHT31;52423;43.512;5.220;2023-11-22T15:09:01;14.59;54.17
65707;SHT31;52423;43.512;5.220;2023-11-22T15:11:29;14.56;54.65
65707;SHT31;52423;43.512;5.220;2023-11-22T15:13:55;14.47;54.88
65707;SHT31;52423;43.512;5.220;2023-11-22T15:16:20;14.40;54.71
65707;SHT31;52423;43.512;5.220;2023-11-22T15:18:46;14.33;54.61
65707;SHT31;52423;43.512;5.220;2023-11-22T15:21:12;14.29;54.97
65707;SHT31;52423;43.512;5.220;2023-11-22T15:23:38;14.21;55.58
65707;SHT31;52423;43.512;5.220;2023-11-22T15:26:04;14.11;55.66
65707;SHT31;52423;43.512;5.220;2023-11-22T15:28:29;14.05;55.88
65707;SHT31;52423;43.512;5.220;2023-11-22T15:30:54;14.00;55.26
65707;SHT31;52423;43.512;5.220;2023-11-22T15:33:24;13.92;56.26